Time;durP1;ratioP1;P1;durP2;ratioP2;P2;SDS_P1;SDS_P2;PMS_P1;PMS_P2;Temp;Humidity;BMP_temperature;BMP_pressure;BME280_temperature;BME280_humidity;BME280_pressure;Samples;Min_cycle;Max_cycle;Signal;HPM_P1;HPM_P2
2022/04/09 00:01:16;;;;;;;11.40;2.90;;;;;;;2.53;93.27;99104.77;104766;1276;73346;-70
2022/04/09 00:03:43;;;;;;;7.10;2.20;;;;;;;2.50;93.28;99103.14;104728;1276;61451;-70
2022/04/09 00:06:10;;;;;;;7.80;2.40;;;;;;;2.48;93.54;99108.28;104757;1276;61200;-71
2022/04/09 00:08:36;;;;;;;3.80;1.50;;;;;;;2.48;93.50;99111.55;104735;1276;74892;-71
2022/04/09 00:11:06;;;;;;;3.30;1.70;;;;;;;2.51;93.45;99106.54;104568;1276;72364;-71
2022/04/09 00:13:32;;;;;;;4.60;1.60;;;;;;;2.51;93.43;99110.51;104693;1276;72304;-70
2022/04/09 00:15:59;;;;;;;3.80;2.00;;;;;;;2.51;93.46;99113.21;104607;1276;61769;-71
2022/04/09 00:18:26;;;;;;;4.50;1.10;;;;;;;2.49;93.41;99118.84;104784;1276;61420;-72
2022/04/09 00:20:55;;;;;;;4.60;1.80;;;;;;;2.47;93.78;99120.38;104760;1277;73651;-71
2022/04/09 00:23:23;;;;;;;4.70;2.00;;;;;;;2.45;93.75;99123.52;104805;1277;71271;-69
2022/04/09 00:25:50;;;;;;;3.70;1.60;;;;;;;2.44;93.46;99123.63;104802;1276;72683;-73
2022/04/09 00:28:16;;;;;;;8.70;2.80;;;;;;;2.43;93.91;99131.63;104698;1277;62304;-68
2022/04/09 00:30:43;;;;;;;3.90;1.70;;;;;;;2.42;93.76;99133.30;104712;1276;61252;-72
2022/04/09 00:33:10;;;;;;;3.90;1.40;;;;;;;2.41;93.93;99135.81;104719;1277;75102;-72
2022/04/09 00:35:36;;;;;;;7.80;3.20;;;;;;;2.39;93.83;99144.61;104723;1276;61379;-71
2022/04/09 00:38:03;;;;;;;7.00;2.10;;;;;;;2.38;94.01;99144.94;104726;1276;72951;-71
2022/04/09 00:40:29;;;;;;;5.70;1.60;;;;;;;2.35;93.97;99147.96;104735;1276;61736;-70
2022/04/09 00:42:56;;;;;;;5.90;2.00;;;;;;;2.33;94.15;99153.59;104795;1276;61354;-71
2022/04/09 00:45:22;;;;;;;8.90;2.00;;;;;;;2.32;94.27;99156.17;104724;1276;61258;-69
2022/04/09 00:47:49;;;;;;;6.30;1.80;;;;;;;2.32;94.29;99158.08;104788;1276;70456;-73
2022/04/09 00:50:16;;;;;;;6.50;2.30;;;;;;;2.31;94.61;99166.44;104776;1276;72475;-72
2022/04/09 00:52:47;;;;;;;7.20;1.70;;;;;;;2.29;94.62;99169.93;104744;1276;62309;-71
2022/04/09 00:55:19;;;;;;;8.20;1.70;;;;;;;2.29;95.13;99175.27;104761;1276;61712;-71
2022/04/09 00:57:49;;;;;;;7.10;2.20;;;;;;;2.29;95.22;99176.83;104685;1276;75015;-71
2022/04/09 01:00:18;;;;;;;3.90;1.80;;;;;;;2.29;95.11;99181.90;104780;1276;71549;-72
2022/04/09 01:02:45;;;;;;;3.60;2.60;;;;;;;2.27;95.09;99183.70;104921;1276;73984;-70
2022/04/09 01:05:13;;;;;;;3.90;1.40;;;;;;;2.25;95.28;99187.42;104850;1276;61786;-71
2022/04/09 01:07:39;;;;;;;8.50;2.30;;;;;;;2.26;95.35;99192.75;104780;1276;62334;-71
2022/04/09 01:10:10;;;;;;;4.30;1.80;;;;;;;2.25;95.38;99193.02;104729;1276;74635;-72
2022/04/09 01:12:37;;;;;;;3.80;2.40;;;;;;;2.23;95.60;99196.28;104784;1276;71404;-72
2022/04/09 01:15:08;;;;;;;16.50;2.30;;;;;;;2.23;95.73;99202.77;104689;1276;72708;-73
2022/04/09 01:17:36;;;;;;;3.80;1.30;;;;;;;2.22;95.99;99203.92;104668;1276;61602;-69
2022/04/09 01:20:22;;;;;;;5.30;1.90;;;;;;;2.23;96.23;99208.67;104821;1276;61259;-70
2022/04/09 01:22:49;;;;;;;4.50;1.30;;;;;;;2.24;96.10;99210.87;104797;1276;74822;-70
2022/04/09 01:25:16;;;;;;;12.10;2.70;;;;;;;2.25;96.40;99219.89;104821;1276;71364;-69
2022/04/09 01:27:43;;;;;;;3.40;1.30;;;;;;;2.27;96.37;99218.04;104767;1276;73961;-69
2022/04/09 01:30:10;;;;;;;5.30;1.60;;;;;;;2.31;96.57;99221.35;104799;1276;62237;-68
2022/04/09 01:32:37;;;;;;;5.40;1.30;;;;;;;2.32;96.21;99222.60;104858;1276;61093;-70
2022/04/09 01:35:07;;;;;;;11.30;2.10;;;;;;;2.35;96.51;99235.56;104735;1276;75033;-72
2022/04/09 01:37:33;;;;;;;10.80;2.60;;;;;;;2.37;96.69;99240.71;104770;1276;72357;-71
2022/04/09 01:40:00;;;;;;;7.70;1.40;;;;;;;2.40;96.62;99246.84;104725;1276;61266;-72
2022/04/09 01:42:27;;;;;;;5.70;1.60;;;;;;;2.44;96.75;99256.41;104748;1277;62795;-69
2022/04/09 01:44:53;;;;;;;9.60;1.70;;;;;;;2.48;96.60;99252.92;104742;1276;61148;-73
2022/04/09 01:47:20;;;;;;;10.10;2.20;;;;;;;2.51;96.57;99261.30;104658;1276;61266;-73
2022/04/09 01:49:47;;;;;;;9.10;1.80;;;;;;;2.53;96.41;99256.89;104729;1277;72608;-70
2022/04/09 01:52:14;;;;;;;77.30;3.50;;;;;;;2.55;96.36;99268.78;104732;1276;74609;-70
2022/04/09 01:54:41;;;;;;;6.30;1.60;;;;;;;2.56;96.30;99266.27;104737;1276;61914;-71
2022/04/09 01:57:07;;;;;;;3.10;1.40;;;;;;;2.54;96.19;99268.54;104750;1276;61263;-70
2022/04/09 01:59:34;;;;;;;4.40;1.30;;;;;;;2.52;96.24;99271.41;104734;1276;75081;-70
2022/04/09 02:02:01;;;;;;;4.90;1.30;;;;;;;2.48;96.52;99282.95;104795;1276;71191;-70
2022/04/09 02:04:27;;;;;;;8.90;1.70;;;;;;;2.46;96.67;99287.30;104731;1276;71862;-71
2022/04/09 02:06:54;;;;;;;3.30;2.20;;;;;;;2.43;97.14;99287.06;104776;1276;62141;-71
2022/04/09 02:09:21;;;;;;;3.00;1.10;;;;;;;2.41;96.95;99296.01;104768;1277;61666;-68
2022/04/09 02:11:48;;;;;;;16.00;2.00;;;;;;;2.38;97.25;99295.93;104754;1277;61265;-70
2022/04/09 02:14:15;;;;;;;6.70;1.80;;;;;;;2.36;97.55;99306.33;104860;1276;71341;-72
2022/04/09 02:16:41;;;;;;;6.70;1.70;;;;;;;2.33;97.45;99309.58;104804;1276;61298;-71
2022/04/09 02:19:10;;;;;;;9.20;2.20;;;;;;;2.31;97.65;99314.50;104762;1276;61758;-72
2022/04/09 02:21:38;;;;;;;11.30;1.90;;;;;;;2.27;97.72;99311.71;104714;1276;61353;-70
2022/04/09 02:24:05;;;;;;;7.10;1.70;;;;;;;2.27;98.26;99323.09;104757;1277;76192;-72
2022/04/09 02:26:31;;;;;;;7.40;1.70;;;;;;;2.29;98.11;99326.24;104761;1276;70834;-70
2022/04/09 02:28:58;;;;;;;5.00;1.60;;;;;;;2.31;98.42;99330.73;104805;1277;74033;-68
2022/04/09 02:31:25;;;;;;;7.80;2.20;;;;;;;2.33;98.29;99328.78;104703;1277;61269;-72
2022/04/09 02:33:53;;;;;;;3.50;1.80;;;;;;;2.35;98.18;99328.72;104851;1276;61348;-69
2022/04/09 02:36:25;;;;;;;12.70;2.30;;;;;;;2.36;98.09;99334.23;104757;1277;74927;-71
2022/04/09 02:38:52;;;;;;;8.50;1.50;;;;;;;2.36;98.14;99340.45;104752;1276;72490;-71
2022/04/09 02:41:19;;;;;;;5.70;1.70;;;;;;;2.38;98.26;99346.75;104679;1276;72708;-71
2022/04/09 02:43:48;;;;;;;8.50;2.60;;;;;;;2.40;98.03;99343.19;104702;1276;63097;-71
2022/04/09 02:46:17;;;;;;;12.90;3.10;;;;;;;2.42;98.11;99349.80;104743;1276;61277;-71
2022/04/09 02:48:44;;;;;;;10.70;2.40;;;;;;;2.44;97.90;99356.61;104786;1276;75063;-71
2022/04/09 02:51:12;;;;;;;8.20;2.10;;;;;;;2.47;98.04;99357.73;104323;1276;527514;-68
2022/04/09 02:53:39;;;;;;;5.70;2.10;;;;;;;2.49;97.86;99362.95;104712;1276;72877;-71
2022/04/09 02:56:06;;;;;;;2.90;1.50;;;;;;;2.51;97.84;99370.80;104779;1277;61271;-71
2022/04/09 02:58:32;;;;;;;3.20;1.80;;;;;;;2.52;97.74;99382.33;104735;1276;61242;-69
2022/04/09 03:00:59;;;;;;;10.00;2.20;;;;;;;2.54;97.33;99388.92;104708;1277;61271;-69
2022/04/09 03:03:25;;;;;;;7.80;1.80;;;;;;;2.55;97.82;99397.21;104694;1276;71417;-71
2022/04/09 03:05:52;;;;;;;7.70;1.90;;;;;;;2.58;97.47;99406.91;104725;1277;74066;-71
2022/04/09 03:08:18;;;;;;;7.20;2.10;;;;;;;2.60;97.33;99412.79;104754;1276;61208;-70
2022/04/09 03:10:45;;;;;;;13.80;2.10;;;;;;;2.61;97.01;99415.03;104728;1277;61318;-70
2022/04/09 03:13:12;;;;;;;9.10;2.10;;;;;;;2.62;96.90;99421.27;104756;1276;61373;-70
2022/04/09 03:15:38;;;;;;;6.80;1.70;;;;;;;2.61;97.04;99426.41;104778;1277;71309;-71
2022/04/09 03:18:09;;;;;;;5.90;1.40;;;;;;;2.59;97.02;99433.40;104732;1276;74200;-72
2022/04/09 03:20:35;;;;;;;7.50;1.50;;;;;;;2.58;97.10;99438.23;104718;1277;61930;-71
2022/04/09 03:23:02;;;;;;;6.40;2.10;;;;;;;2.57;97.34;99434.50;104746;1276;61253;-71
2022/04/09 03:25:32;;;;;;;9.30;2.00;;;;;;;2.56;97.06;99439.66;104746;1277;76131;-71
2022/04/09 03:27:59;;;;;;;6.70;1.50;;;;;;;2.55;97.17;99442.79;104720;1276;72657;-70
2022/04/09 03:30:25;;;;;;;5.90;2.10;;;;;;;2.54;97.04;99450.75;104722;1276;72679;-71
2022/04/09 03:32:52;;;;;;;5.10;1.60;;;;;;;2.51;97.21;99447.74;104729;1276;61343;-72
2022/04/09 03:35:18;;;;;;;5.60;1.70;;;;;;;2.45;97.42;99452.46;104740;1277;61294;-71
2022/04/09 03:37:45;;;;;;;6.30;1.50;;;;;;;2.42;97.65;99460.22;104715;1276;76424;-73
2022/04/09 03:40:13;;;;;;;6.00;1.50;;;;;;;2.40;97.90;99454.02;104662;1276;71399;-71
2022/04/09 03:42:40;;;;;;;6.80;2.10;;;;;;;2.38;97.82;99470.62;104809;1277;72942;-71
2022/04/09 03:45:08;;;;;;;4.70;1.10;;;;;;;2.36;97.99;99459.31;104765;1277;61850;-72
2022/04/09 03:47:35;;;;;;;11.90;2.30;;;;;;;2.32;98.07;99462.48;104777;1276;61263;-72
2022/04/09 03:50:04;;;;;;;5.90;1.70;;;;;;;2.27;98.31;99465.76;104724;1277;75032;-72
2022/04/09 03:52:30;;;;;;;9.20;2.60;;;;;;;2.24;98.57;99469.40;104717;1277;71516;-71
2022/04/09 03:54:57;;;;;;;7.40;1.70;;;;;;;2.21;99.02;99475.61;104659;1276;72909;-70
2022/04/09 03:57:24;;;;;;;6.90;2.20;;;;;;;2.20;99.24;99478.35;104687;1277;61466;-71
2022/04/09 03:59:54;;;;;;;6.00;0.90;;;;;;;2.17;99.25;99481.09;104750;1277;61358;-70
2022/04/09 04:02:22;;;;;;;4.80;2.30;;;;;;;2.14;99.60;99482.92;104797;1276;75309;-70
2022/04/09 04:04:49;;;;;;;7.30;1.40;;;;;;;2.13;99.61;99493.52;104774;1277;71128;-70
2022/04/09 04:07:22;;;;;;;9.60;2.70;;;;;;;2.12;99.78;99493.14;104741;1276;74055;-69
2022/04/09 04:09:50;;;;;;;5.00;1.10;;;;;;;2.11;99.91;99500.19;104777;1277;61355;-72
2022/04/09 04:12:16;;;;;;;5.20;1.20;;;;;;;2.09;99.97;99498.27;104775;1276;61724;-70
2022/04/09 04:14:43;;;;;;;7.30;1.70;;;;;;;2.08;100.00;99510.04;104775;1278;74596;-71
2022/04/09 04:17:10;;;;;;;14.10;2.40;;;;;;;2.09;100.00;99511.85;104800;1277;72217;-71
2022/04/09 04:19:37;;;;;;;5.90;1.90;;;;;;;2.09;99.98;99517.45;104768;1276;72993;-74
2022/04/09 04:22:04;;;;;;;8.30;1.80;;;;;;;2.08;99.97;99523.42;104776;1277;62618;-71
2022/04/09 04:24:30;;;;;;;7.80;1.60;;;;;;;2.07;99.97;99521.25;104756;1277;61248;-72
2022/04/09 04:26:57;;;;;;;10.20;2.80;;;;;;;2.05;100.00;99527.90;104730;1277;73914;-71
2022/04/09 04:29:24;;;;;;;4.30;1.50;;;;;;;2.03;100.00;99537.89;104766;1277;61298;-71
2022/04/09 04:31:50;;;;;;;9.10;2.50;;;;;;;2.02;100.00;99538.67;104752;1277;74315;-71
2022/04/09 04:34:17;;;;;;;7.50;2.10;;;;;;;2.01;100.00;99544.14;104687;1276;62065;-69
2022/04/09 04:36:44;;;;;;;4.40;1.50;;;;;;;2.00;99.92;99547.23;104812;1276;61337;-69
2022/04/09 04:39:12;;;;;;;9.00;1.70;;;;;;;1.98;100.00;99555.09;104920;1277;61250;-69
2022/04/09 04:41:39;;;;;;;7.60;2.40;;;;;;;1.97;100.00;99558.64;104926;1277;71145;-68
2022/04/09 04:44:06;;;;;;;4.30;1.90;;;;;;;1.98;99.98;99566.27;104837;1277;61369;-70
2022/04/09 04:46:34;;;;;;;5.80;2.50;;;;;;;1.99;99.99;99567.90;104936;1276;62715;-72
2022/04/09 04:49:01;;;;;;;6.80;1.90;;;;;;;2.01;100.00;99575.38;104737;1277;61259;-71
2022/04/09 04:51:28;;;;;;;7.50;2.30;;;;;;;2.03;100.00;99576.73;104779;1277;61241;-71
2022/04/09 04:53:54;;;;;;;5.90;1.60;;;;;;;2.04;99.89;99580.34;104760;1277;71381;-71
2022/04/09 04:56:23;;;;;;;3.20;1.40;;;;;;;2.06;99.88;99579.14;104752;1276;73118;-69
2022/04/09 04:58:51;;;;;;;3.80;1.80;;;;;;;2.06;99.82;99579.60;104764;1276;61332;-71
2022/04/09 05:01:17;;;;;;;8.50;1.90;;;;;;;2.07;99.71;99582.55;104691;1276;61714;-70
2022/04/09 05:03:44;;;;;;;11.40;2.00;;;;;;;2.08;99.78;99591.63;104744;1276;76106;-70
2022/04/09 05:06:11;;;;;;;4.30;1.80;;;;;;;2.10;99.82;99590.27;104720;1277;70191;-72
2022/04/09 05:08:40;;;;;;;9.60;2.40;;;;;;;2.11;99.54;99596.58;104760;1277;72987;-71
2022/04/09 05:11:06;;;;;;;5.60;2.00;;;;;;;2.12;99.70;99596.83;104752;1276;61276;-73
2022/04/09 05:13:33;;;;;;;8.20;2.50;;;;;;;2.13;99.54;99607.23;104763;1277;61285;-71
2022/04/09 05:15:59;;;;;;;2.90;1.40;;;;;;;2.14;99.27;99604.48;104800;1277;75046;-69
2022/04/09 05:18:27;;;;;;;2.90;1.10;;;;;;;2.15;99.22;99608.41;104753;1277;71400;-71
2022/04/09 05:20:53;;;;;;;2.10;1.20;;;;;;;2.15;99.20;99613.25;104775;1277;72805;-70
2022/04/09 05:23:20;;;;;;;5.90;1.80;;;;;;;2.17;99.24;99614.66;104730;1277;61265;-72
2022/04/09 05:25:47;;;;;;;6.40;1.20;;;;;;;2.19;99.05;99619.48;104734;1276;61705;-71
2022/04/09 05:28:13;;;;;;;10.10;2.10;;;;;;;2.24;98.92;99624.27;104697;1277;74750;-71
2022/04/09 05:30:45;;;;;;;7.50;2.00;;;;;;;2.28;98.63;99626.52;104786;1277;70995;-70
2022/04/09 05:33:13;;;;;;;2.40;1.00;;;;;;;2.33;98.36;99639.48;104680;1276;73219;-70
2022/04/09 05:35:40;;;;;;;4.50;1.90;;;;;;;2.37;98.23;99640.80;104790;1277;62806;-70
2022/04/09 05:38:09;;;;;;;3.00;1.70;;;;;;;2.35;98.07;99631.42;104688;1277;62452;-70
2022/04/09 05:40:36;;;;;;;2.30;1.50;;;;;;;2.42;98.07;99644.69;104713;1277;75818;-72
2022/04/09 05:43:04;;;;;;;3.20;1.20;;;;;;;2.46;98.03;99653.96;104651;1276;71363;-72
2022/04/09 05:45:30;;;;;;;3.80;1.50;;;;;;;2.50;98.10;99655.83;104660;1276;72955;-71
2022/04/09 05:47:58;;;;;;;3.80;1.30;;;;;;;2.55;97.79;99665.80;104754;1277;61471;-70
2022/04/09 05:50:24;;;;;;;2.90;1.70;;;;;;;2.61;97.33;99670.68;104770;1277;61274;-71
2022/04/09 05:52:51;;;;;;;4.70;1.80;;;;;;;2.66;97.02;99695.08;104689;1277;75006;-71
2022/04/09 05:55:17;;;;;;;6.10;1.60;;;;;;;2.72;96.72;99686.02;104711;1276;71811;-72
2022/04/09 05:57:44;;;;;;;5.30;1.60;;;;;;;2.78;96.47;99687.80;104773;1277;73328;-71
2022/04/09 06:00:13;;;;;;;2.70;1.90;;;;;;;2.88;95.86;99692.77;104713;1276;63129;-69
2022/04/09 06:02:40;;;;;;;11.00;2.20;;;;;;;2.95;95.50;99695.22;104804;1278;61368;-71
2022/04/09 06:05:07;;;;;;;2.20;1.30;;;;;;;3.02;95.25;99695.31;104679;1276;75069;-68
2022/04/09 06:07:34;;;;;;;6.30;1.80;;;;;;;3.07;94.81;99699.35;104708;1278;71477;-68
2022/04/09 06:10:03;;;;;;;6.20;1.60;;;;;;;3.16;94.64;99704.73;104698;1278;74231;-72
2022/04/09 06:12:30;;;;;;;5.60;1.30;;;;;;;3.20;93.75;99713.58;104781;1277;62498;-70
2022/04/09 06:14:57;;;;;;;6.90;2.20;;;;;;;3.26;93.05;99714.05;104788;1281;61339;-71
2022/04/09 06:17:26;;;;;;;3.80;1.20;;;;;;;3.33;92.89;99716.17;104726;1278;75346;-71
2022/04/09 06:19:53;;;;;;;8.90;2.30;;;;;;;3.37;92.65;99721.70;104721;1277;70580;-71
2022/04/09 06:22:20;;;;;;;5.90;1.90;;;;;;;3.40;92.24;99734.54;104714;1280;73070;-72
2022/04/09 06:24:47;;;;;;;8.60;2.20;;;;;;;3.47;92.04;99729.25;104680;1278;62460;-71
2022/04/09 06:27:14;;;;;;;3.30;2.10;;;;;;;3.53;91.40;99735.81;104768;1276;61627;-72
2022/04/09 06:29:40;;;;;;;10.90;1.80;;;;;;;3.55;90.26;99740.75;104776;1277;76184;-71
2022/04/09 06:32:07;;;;;;;5.60;2.00;;;;;;;3.56;89.87;99746.92;104685;1277;71545;-74
2022/04/09 06:34:34;;;;;;;4.10;1.40;;;;;;;3.56;89.69;99753.69;104703;1277;72670;-71
2022/04/09 06:37:00;;;;;;;7.30;2.20;;;;;;;3.67;89.94;99759.52;104665;1277;61236;-72
2022/04/09 06:39:34;;;;;;;11.20;2.20;;;;;;;3.75;90.20;99761.44;104733;1277;61974;-70
2022/04/09 06:42:01;;;;;;;3.30;1.00;;;;;;;3.81;89.83;99761.91;104776;1277;76026;-71
2022/04/09 06:44:27;;;;;;;4.40;1.50;;;;;;;3.87;89.09;99760.27;104684;1277;72711;-71
2022/04/09 06:46:54;;;;;;;5.30;1.70;;;;;;;3.95;88.57;99766.65;104712;1278;73043;-71
2022/04/09 06:49:21;;;;;;;11.90;2.50;;;;;;;4.02;88.42;99766.44;104704;1276;62426;-71
2022/04/09 06:51:48;;;;;;;5.10;1.20;;;;;;;4.05;87.84;99780.86;104767;1277;61281;-70
2022/04/09 06:54:15;;;;;;;8.50;2.20;;;;;;;4.10;87.15;99783.83;104834;1277;75039;-70
2022/04/09 06:56:44;;;;;;;6.80;3.00;;;;;;;4.26;86.88;99774.30;104734;1280;70503;-72
2022/04/09 06:59:10;;;;;;;4.40;1.50;;;;;;;4.37;87.23;99769.20;104695;1277;73041;-70
2022/04/09 07:01:37;;;;;;;6.30;1.50;;;;;;;4.42;86.61;99775.98;104728;1278;61410;-71
2022/04/09 07:04:04;;;;;;;3.50;1.30;;;;;;;4.44;85.72;99789.48;104652;1277;61343;-71
2022/04/09 07:06:33;;;;;;;3.60;1.20;;;;;;;4.46;85.14;99787.50;104741;1277;75208;-68
2022/04/09 07:09:00;;;;;;;4.00;1.20;;;;;;;4.47;85.53;99789.14;104678;1277;72029;-70
2022/04/09 07:11:26;;;;;;;8.80;1.60;;;;;;;4.55;85.54;99799.38;104698;1277;71664;-71
2022/04/09 07:13:53;;;;;;;5.10;1.10;;;;;;;4.58;85.35;99793.61;104662;1277;62674;-71
2022/04/09 07:16:20;;;;;;;5.20;1.20;;;;;;;4.64;84.52;99798.85;104691;1276;61183;-73
2022/04/09 07:18:47;;;;;;;7.20;1.60;;;;;;;4.68;84.40;99806.65;104702;1277;74720;-73
2022/04/09 07:21:13;;;;;;;9.10;2.00;;;;;;;4.73;83.63;99800.70;104677;1277;62613;-72
2022/04/09 07:23:40;;;;;;;6.70;1.40;;;;;;;4.80;83.64;99799.76;104678;1276;61397;-71
2022/04/09 07:26:06;;;;;;;3.40;0.90;;;;;;;4.85;83.43;99804.17;104686;1277;61220;-73
2022/04/09 07:28:33;;;;;;;3.70;1.00;;;;;;;4.87;82.74;99810.63;104653;1276;61409;-73
2022/04/09 07:30:59;;;;;;;10.20;1.40;;;;;;;4.95;82.17;99821.75;104635;1277;61388;-72
2022/04/09 07:33:26;;;;;;;6.50;1.40;;;;;;;5.04;82.72;99806.88;104660;1277;61278;-69
2022/04/09 07:35:55;;;;;;;3.80;1.30;;;;;;;5.14;81.08;99814.40;104685;1276;73084;-71
2022/04/09 07:38:21;;;;;;;10.60;2.00;;;;;;;5.37;80.96;99815.50;104691;1278;61227;-70
2022/04/09 07:40:48;;;;;;;5.30;1.30;;;;;;;5.49;80.02;99826.85;104722;1277;62882;-71
2022/04/09 07:43:15;;;;;;;4.00;1.40;;;;;;;5.58;80.30;99820.88;104676;1277;76124;-71
2022/04/09 07:45:41;;;;;;;6.10;1.30;;;;;;;5.65;77.39;99833.03;104698;1277;71497;-72
2022/04/09 07:48:11;;;;;;;4.40;1.50;;;;;;;5.79;77.82;99823.71;104678;1277;61247;-71
2022/04/09 07:50:38;;;;;;;3.00;1.10;;;;;;;5.84;77.46;99832.48;104675;1276;61359;-74
2022/04/09 07:53:07;;;;;;;3.90;1.70;;;;;;;5.80;76.56;99831.85;104703;1278;61298;-72
2022/04/09 07:55:34;;;;;;;4.90;1.10;;;;;;;5.85;77.23;99833.03;104686;1276;74908;-73
2022/04/09 07:58:01;;;;;;;5.00;1.00;;;;;;;5.89;76.08;99843.52;104702;1276;71367;-72
2022/04/09 08:00:33;;;;;;;5.90;1.40;;;;;;;5.87;75.94;99831.75;104724;1277;72741;-70
2022/04/09 08:03:03;;;;;;;3.70;1.40;;;;;;;5.87;76.38;99842.96;104679;1276;61378;-71
2022/04/09 08:05:30;;;;;;;6.80;1.20;;;;;;;5.83;75.76;99843.65;104667;1277;61358;-70
2022/04/09 08:07:57;;;;;;;9.30;1.20;;;;;;;5.76;75.06;99857.52;104667;1276;74918;-73
2022/04/09 08:10:24;;;;;;;5.20;1.20;;;;;;;5.76;74.93;99853.14;104760;1276;71434;-69
2022/04/09 08:12:53;;;;;;;6.10;1.20;;;;;;;5.86;74.51;99859.45;104668;1276;61320;-71
2022/04/09 08:15:21;;;;;;;3.90;1.10;;;;;;;5.91;74.68;99863.43;104690;1277;62319;-71
2022/04/09 08:17:48;;;;;;;3.50;1.20;;;;;;;5.92;74.31;99861.27;104684;1277;61231;-73
2022/04/09 08:20:18;;;;;;;3.80;1.30;;;;;;;5.95;74.30;99853.90;104655;1277;76002;-72
2022/04/09 08:22:45;;;;;;;9.70;1.30;;;;;;;6.05;74.19;99854.04;104776;1276;71275;-71
2022/04/09 08:25:12;;;;;;;2.40;1.10;;;;;;;6.11;73.90;99854.30;104884;1276;61285;-71
2022/04/09 08:27:38;;;;;;;5.80;1.20;;;;;;;6.21;74.16;99868.14;104723;1278;61251;-69
2022/04/09 08:30:06;;;;;;;5.10;1.40;;;;;;;6.42;72.92;99873.21;104767;1277;61318;-71
2022/04/09 08:32:33;;;;;;;2.90;0.90;;;;;;;6.56;72.43;99872.75;104734;1277;74794;-72
2022/04/09 08:35:01;;;;;;;2.50;1.00;;;;;;;6.65;71.01;99872.65;104761;1277;70564;-70
2022/04/09 08:37:27;;;;;;;4.20;0.90;;;;;;;6.58;70.55;99892.38;104730;1277;72979;-73
2022/04/09 08:39:55;;;;;;;5.20;0.90;;;;;;;6.50;70.85;99872.73;104760;1277;61932;-69
2022/04/09 08:42:22;;;;;;;3.90;1.00;;;;;;;6.53;71.63;99871.17;104757;1277;61189;-72
2022/04/09 08:44:49;;;;;;;5.00;1.00;;;;;;;6.64;71.13;99876.88;104726;1277;76458;-70
2022/04/09 08:47:16;;;;;;;6.50;1.00;;;;;;;6.84;70.16;99879.48;104797;1276;72469;-69
2022/04/09 08:49:47;;;;;;;2.40;0.90;;;;;;;6.89;68.59;99874.17;104908;1276;72960;-68
2022/04/09 08:52:15;;;;;;;2.50;0.80;;;;;;;6.83;67.78;99893.12;104944;1276;62629;-68
2022/04/09 08:54:42;;;;;;;6.50;1.10;;;;;;;6.75;68.61;99895.27;104943;1276;61379;-72
2022/04/09 08:57:10;;;;;;;7.40;1.20;;;;;;;6.75;68.45;99891.21;104825;1276;74239;-71
2022/04/09 08:59:38;;;;;;;5.40;1.20;;;;;;;6.80;67.63;99894.95;104838;1277;71461;-70
2022/04/09 09:02:05;;;;;;;5.40;1.00;;;;;;;6.76;67.56;99887.05;104876;1277;73002;-72
2022/04/09 09:04:33;;;;;;;2.50;1.10;;;;;;;6.74;67.24;99887.46;104713;1276;61281;-73
2022/04/09 09:07:17;;;;;;;2.10;0.80;;;;;;;6.90;67.45;99894.78;104719;1276;61185;-71
2022/04/09 09:09:44;;;;;;;7.20;1.00;;;;;;;7.03;66.26;99901.84;104841;1276;74646;-73
2022/04/09 09:12:12;;;;;;;3.40;0.80;;;;;;;7.11;66.35;99903.11;104758;1277;72473;-72
2022/04/09 09:14:45;;;;;;;3.60;1.40;;;;;;;7.11;67.15;99906.40;104784;1276;74327;-75
2022/04/09 09:17:12;;;;;;;4.80;1.20;;;;;;;7.09;67.05;99915.09;104845;1276;61507;-74
2022/04/09 09:19:42;;;;;;;4.60;1.00;;;;;;;6.97;66.95;99905.30;104834;1277;61290;-74
2022/04/09 09:22:09;;;;;;;4.50;1.10;;;;;;;6.90;67.11;99901.26;104969;1276;74872;-74
2022/04/09 09:24:36;;;;;;;4.50;1.10;;;;;;;6.95;66.21;99914.30;104758;1276;72078;-73
2022/04/09 09:27:04;;;;;;;2.50;1.00;;;;;;;7.02;64.16;99914.67;104807;1277;61387;-74
2022/04/09 09:29:32;;;;;;;2.00;1.00;;;;;;;6.87;64.92;99921.80;104952;1276;61238;-76
2022/04/09 09:32:02;;;;;;;2.50;0.70;;;;;;;6.79;63.34;99915.41;104840;1277;61357;-71
2022/04/09 09:34:29;;;;;;;3.70;0.80;;;;;;;6.79;63.00;99918.54;104816;1277;76021;-76
2022/04/09 09:36:56;;;;;;;3.90;0.80;;;;;;;6.93;62.95;99925.60;104842;1276;72406;-72
2022/04/09 09:39:25;;;;;;;5.90;1.00;;;;;;;7.24;64.07;99912.29;104846;1276;72094;-72
2022/04/09 09:42:03;;;;;;;3.50;0.70;;;;;;;7.62;63.23;99908.92;104837;1277;61582;-74
2022/04/09 09:44:32;;;;;;;1.90;0.90;;;;;;;7.73;61.60;99908.64;104843;1277;61350;-73
2022/04/09 09:47:09;;;;;;;2.20;0.90;;;;;;;7.71;59.90;99910.31;104838;1276;74936;-72
2022/04/09 09:49:57;;;;;;;2.10;0.90;;;;;;;8.00;60.68;99904.35;104861;1277;71091;-73
2022/04/09 09:52:34;;;;;;;1.80;0.80;;;;;;;8.09;60.11;99919.70;104796;1277;73052;-75
2022/04/09 09:55:15;;;;;;;4.10;1.30;;;;;;;7.81;60.24;99922.05;104764;1276;61365;-73
2022/04/09 09:57:43;;;;;;;1.90;0.70;;;;;;;7.64;61.17;99935.80;104832;1277;61240;-75
2022/04/09 10:00:11;;;;;;;3.60;0.90;;;;;;;7.60;62.16;99923.26;104772;1277;76291;-74
2022/04/09 10:02:39;;;;;;;4.10;1.00;;;;;;;7.63;61.27;99929.37;104902;1277;72219;-73
2022/04/09 10:05:07;;;;;;;1.80;0.60;;;;;;;7.58;61.69;99926.83;104855;1276;72868;-75
2022/04/09 10:07:34;;;;;;;2.40;1.00;;;;;;;7.53;62.13;99924.35;104812;1277;61273;-76
2022/04/09 10:10:03;;;;;;;1.60;0.60;;;;;;;7.36;62.05;99931.89;104857;1277;61182;-74
2022/04/09 10:12:39;;;;;;;2.00;0.80;;;;;;;7.26;65.37;99933.20;104841;1276;76465;-72
2022/04/09 10:15:08;;;;;;;3.30;0.50;;;;;;;7.22;68.22;99925.23;104929;1277;71230;-72
2022/04/09 10:17:35;;;;;;;2.50;1.00;;;;;;;7.39;68.74;99928.09;104860;1277;72137;-71
2022/04/09 10:20:05;;;;;;;2.90;0.80;;;;;;;7.41;66.59;99945.80;104825;1277;61388;-75
2022/04/09 10:22:39;;;;;;;2.50;0.60;;;;;;;7.00;70.72;99965.14;104888;1276;61285;-73
2022/04/09 10:25:07;;;;;;;2.70;0.80;;;;;;;6.46;75.21;99959.09;104867;1276;74969;-74
2022/04/09 10:27:49;;;;;;;3.20;0.50;;;;;;;6.14;78.96;99963.20;104850;1277;71368;-75
2022/04/09 10:30:19;;;;;;;2.00;0.50;;;;;;;6.01;79.52;99964.40;104940;1276;72932;-72
2022/04/09 10:32:52;;;;;;;2.00;0.50;;;;;;;6.00;79.78;99957.52;104879;1276;61420;-75
2022/04/09 10:35:40;;;;;;;1.10;0.60;;;;;;;6.13;80.06;99962.20;104851;1277;61480;-74
2022/04/09 10:38:10;;;;;;;3.80;0.90;;;;;;;6.31;79.46;99964.70;104835;1276;76551;-75
2022/04/09 10:41:02;;;;;;;2.50;0.80;;;;;;;6.52;78.38;99965.74;104799;1276;71621;-73
2022/04/09 10:43:39;;;;;;;3.10;1.00;;;;;;;6.77;77.99;99955.65;104814;1276;72995;-75
2022/04/09 10:46:06;;;;;;;3.40;0.90;;;;;;;6.96;75.96;99959.90;104852;1276;61145;-73
2022/04/09 10:48:41;;;;;;;4.30;0.60;;;;;;;7.06;72.01;99972.55;104837;1276;61268;-73
2022/04/09 10:51:12;;;;;;;4.10;0.70;;;;;;;7.12;71.17;99957.70;104822;1277;75781;-74
2022/04/09 10:53:40;;;;;;;1.70;0.70;;;;;;;7.30;73.05;99952.11;104808;1276;72455;-75
2022/04/09 10:56:24;;;;;;;0.70;0.40;;;;;;;7.54;70.79;99969.77;104870;1276;72959;-74
2022/04/09 10:59:10;;;;;;;2.00;0.70;;;;;;;7.71;67.81;99956.13;104759;1276;61288;-75
2022/04/09 11:01:46;;;;;;;2.10;0.60;;;;;;;7.87;66.13;99965.43;104784;1276;61333;-73
2022/04/09 11:04:29;;;;;;;3.00;1.20;;;;;;;8.04;66.27;99956.19;104775;1276;74875;-72
2022/04/09 11:07:16;;;;;;;5.70;1.00;;;;;;;8.11;65.88;99947.41;104780;1276;72960;-73
2022/04/09 11:09:53;;;;;;;3.10;0.80;;;;;;;7.99;67.58;99955.34;104763;1276;74003;-73
2022/04/09 11:12:30;;;;;;;4.00;1.10;;;;;;;7.78;67.52;99959.17;104690;1276;61799;-74
2022/04/09 11:14:59;;;;;;;3.00;1.00;;;;;;;7.48;68.74;99974.31;104616;1277;61320;-75
2022/04/09 11:17:37;;;;;;;1.20;0.40;;;;;;;6.90;73.82;100013.14;104822;1276;76315;-70
2022/04/09 11:20:12;;;;;;;1.30;0.40;;;;;;;5.71;79.12;100014.38;104702;1276;71229;-70
2022/04/09 11:22:44;;;;;;;1.70;0.60;;;;;;;5.01;83.66;100004.88;104772;1276;73941;-70
2022/04/09 11:25:19;;;;;;;4.50;1.00;;;;;;;4.61;87.20;99999.23;104775;1276;61850;-72
2022/04/09 11:27:46;;;;;;;1.90;0.50;;;;;;;4.48;89.34;100001.77;104813;1276;61666;-69
2022/04/09 11:30:13;;;;;;;1.80;0.70;;;;;;;4.51;91.00;99990.07;104748;1276;75388;-70
2022/04/09 11:32:40;;;;;;;1.90;0.60;;;;;;;4.67;92.17;99990.24;104798;1276;72423;-70
2022/04/09 11:35:10;;;;;;;1.70;0.60;;;;;;;4.90;92.21;99988.13;104765;1276;73710;-71
2022/04/09 11:37:42;;;;;;;2.80;0.60;;;;;;;5.19;90.69;99987.08;104766;1276;61568;-71